Terminal Aerodrome Forecast
Issued by NWS Oklahoma City, OK

Home | Current Version | Previous Version | Text Only | Print | Product List | Glossary On
Versions: 1 2 3 4 5 6 7 8 9 10 11 12 13 14 15 16 17 18 19 20 21 22 23 24 25 26 27 28 29 30
000
FTUS44 KOUN 291258 AAB
TAFOUN
TAF AMD
KOUN 291258Z 2913/3012 36015G23KT P6SM VCTS SCT035 BKN050CB
      TEMPO 2913/2914 4SM TSRA BKN030 OVC040CB
     FM291400 04008KT 6SM -RA VCTS BKN050CB OVC100
     FM291600 11008KT P6SM BKN070 BKN120 OVC200
     FM300000 12008KT P6SM SCT050 BKN250=

USA.gov is the U.S. government's official web portal to all federal, state and local government web resources and services.